Time;durP1;ratioP1;P1;durP2;ratioP2;P2;SDS_P1;SDS_P2;PMS_P1;PMS_P2;Temp;Humidity;BMP_temperature;BMP_pressure;BME280_temperature;BME280_humidity;BME280_pressure;Samples;Min_cycle;Max_cycle;Signal;HPM_P1;HPM_P2
2022/08/29 00:00:12;;;;;;;27.27;18.90;;;;;;;21.09;100.00;96554.50;5026720;28;20475;-50
2022/08/29 00:02:48;;;;;;;26.35;19.55;;;;;;;21.21;100.00;96544.78;5027690;28;20041;-50
2022/08/29 00:05:18;;;;;;;20.85;15.43;;;;;;;21.17;100.00;96543.56;5030091;28;20092;-49
2022/08/29 00:07:52;;;;;;;19.23;15.13;;;;;;;21.35;100.00;96536.75;5028154;28;20081;-47
2022/08/29 00:10:21;;;;;;;23.40;16.58;;;;;;;20.97;100.00;96543.59;5034204;28;20550;-52
2022/08/29 00:12:49;;;;;;;24.92;18.58;;;;;;;20.76;100.00;96549.19;5030120;28;20214;-50
2022/08/29 00:15:18;;;;;;;23.10;17.38;;;;;;;21.24;100.00;96540.88;5026146;28;20091;-53
2022/08/29 00:17:47;;;;;;;20.98;16.60;;;;;;;21.09;100.00;96541.94;5023429;28;20073;-54
2022/08/29 00:20:19;;;;;;;24.30;16.73;;;;;;;20.97;100.00;96540.91;5027754;28;20076;-50
2022/08/29 00:22:52;;;;;;;23.52;16.90;;;;;;;21.14;100.00;96543.16;5019124;28;20137;-54
2022/08/29 00:25:26;;;;;;;22.25;15.88;;;;;;;21.21;100.00;96534.06;5019907;28;20092;-49
2022/08/29 00:27:54;;;;;;;22.05;15.25;;;;;;;21.10;100.00;96542.75;5028795;28;20080;-50
2022/08/29 00:30:24;;;;;;;21.13;16.35;;;;;;;21.06;100.00;96546.91;5026082;28;20527;-49
2022/08/29 00:32:52;;;;;;;21.90;16.60;;;;;;;20.84;100.00;96540.91;5027261;28;20085;-54
2022/08/29 00:35:25;;;;;;;22.58;17.77;;;;;;;21.23;100.00;96541.88;5028512;28;20483;-47
2022/08/29 00:37:54;;;;;;;23.48;17.52;;;;;;;21.24;100.00;96548.94;5022277;28;20076;-48
2022/08/29 00:40:25;;;;;;;30.48;20.58;;;;;;;20.57;100.00;96553.50;5028389;28;20064;-49
2022/08/29 00:42:53;;;;;;;29.50;20.00;;;;;;;20.67;100.00;96553.09;5019357;28;20471;-53
2022/08/29 00:45:23;;;;;;;29.75;20.45;;;;;;;20.71;100.00;96552.47;5026638;28;20073;-49
2022/08/29 00:47:54;;;;;;;34.03;17.17;;;;;;;20.91;100.00;96555.13;5023533;28;20089;-50
2022/08/29 00:50:27;;;;;;;28.15;16.17;;;;;;;21.16;100.00;96546.44;5027249;28;20077;-53
2022/08/29 00:52:57;;;;;;;29.27;16.40;;;;;;;20.94;100.00;96548.53;5026628;28;20103;-52
2022/08/29 00:55:28;;;;;;;24.33;15.55;;;;;;;20.74;100.00;96541.34;5027202;28;20560;-54
2022/08/29 00:57:59;;;;;;;35.38;16.02;;;;;;;20.37;100.00;96548.91;5022524;28;20080;-48
2022/08/29 01:00:27;;;;;;;38.25;15.35;;;;;;;20.65;100.00;96550.63;5023716;28;20089;-51
2022/08/29 01:02:56;;;;;;;25.20;16.80;;;;;;;20.67;100.00;96553.09;5021106;28;20453;-54
2022/08/29 01:05:26;;;;;;;44.30;17.00;;;;;;;20.71;100.00;96551.63;5023895;28;20072;-55
2022/08/29 01:07:54;;;;;;;52.75;17.30;;;;;;;20.67;100.00;96556.59;5018673;28;20077;-50
2022/08/29 01:13:11;;;;;;;54.95;18.58;;;;;;;20.54;100.00;96551.22;5020679;28;20096;-49
2022/08/29 01:15:42;;;;;;;41.17;17.92;;;;;;;20.70;100.00;96558.03;5021303;28;20463;-49
2022/08/29 01:18:12;;;;;;;74.15;17.85;;;;;;;20.48;100.00;96558.22;5028870;28;20087;-46
2022/08/29 01:20:50;;;;;;;63.45;16.27;;;;;;;19.96;100.00;96559.75;5027021;28;20115;-51
2022/08/29 01:23:21;;;;;;;49.60;15.93;;;;;;;20.67;100.00;96553.91;5023567;28;20069;-53
2022/08/29 01:25:52;;;;;;;28.73;15.38;;;;;;;20.40;100.00;96558.38;5028170;28;20076;-49
2022/08/29 01:28:21;;;;;;;;;;;;;;;20.53;100.00;96558.44;5027918;28;20076;-53
2022/08/29 01:31:02;;;;;;;21.77;15.20;;;;;;;20.63;100.00;96547.31;5023993;28;19971;-48
2022/08/29 01:33:40;;;;;;;18.45;14.23;;;;;;;20.67;100.00;96553.91;5025960;28;20546;-48
2022/08/29 01:36:12;;;;;;;16.02;13.55;;;;;;;20.71;100.00;96543.59;5025440;28;20522;-47
2022/08/29 01:38:40;;;;;;;22.35;13.55;;;;;;;20.62;100.00;96541.13;5022633;28;20084;-53
2022/08/29 01:41:11;;;;;;;83.00;15.70;;;;;;;20.34;100.00;96538.63;5021042;28;20072;-52
2022/08/29 01:43:42;;;;;;;28.98;15.55;;;;;;;20.21;100.00;96538.59;5027857;28;20318;-53
2022/08/29 01:46:13;;;;;;;20.17;15.27;;;;;;;20.01;100.00;96548.41;5026745;28;20109;-48
2022/08/29 01:48:44;;;;;;;20.75;14.52;;;;;;;20.37;100.00;96548.06;5028154;28;20086;-51
2022/08/29 01:51:13;;;;;;;20.85;14.77;;;;;;;20.16;100.00;96541.03;5024211;28;20072;-50
2022/08/29 01:53:42;;;;;;;17.03;14.27;;;;;;;20.26;100.00;96537.97;5022909;28;20077;-51
2022/08/29 01:56:15;;;;;;;19.58;14.88;;;;;;;20.14;100.00;96543.09;5029209;28;20077;-56
2022/08/29 01:58:44;;;;;;;21.83;14.07;;;;;;;20.09;100.00;96541.00;5031758;28;20065;-52
2022/08/29 02:01:14;;;;;;;20.58;14.00;;;;;;;20.08;100.00;96535.88;5029704;28;20100;-50
2022/08/29 02:03:42;;;;;;;17.90;14.90;;;;;;;20.02;100.00;96537.50;5025802;28;20452;-50
2022/08/29 02:06:11;;;;;;;20.20;14.55;;;;;;;19.96;100.00;96534.81;5031104;28;20472;-55
2022/08/29 02:08:41;;;;;;;22.75;13.93;;;;;;;19.70;100.00;96540.91;5029269;28;20516;-50
2022/08/29 02:11:11;;;;;;;36.80;13.90;;;;;;;19.57;100.00;96545.13;5030168;28;20095;-54
2022/08/29 02:13:44;;;;;;;30.47;13.03;;;;;;;20.07;100.00;96532.38;5031649;28;20075;-48
2022/08/29 02:16:13;;;;;;;34.38;13.45;;;;;;;20.29;100.00;96540.25;5031491;28;20081;-53
2022/08/29 02:18:42;;;;;;;51.90;13.55;;;;;;;19.94;100.00;96540.38;5029080;28;20069;-51
2022/08/29 02:21:11;;;;;;;43.13;12.38;;;;;;;20.13;100.00;96536.94;5028720;28;20073;-49
2022/08/29 02:23:41;;;;;;;38.07;12.40;;;;;;;19.53;100.00;96543.88;5029437;28;20080;-52
2022/08/29 02:26:09;;;;;;;32.03;11.00;;;;;;;19.87;100.00;96542.22;5031672;28;20076;-49
2022/08/29 02:28:40;;;;;;;19.83;11.82;;;;;;;19.77;100.00;96547.09;5025190;28;20445;-49
2022/08/29 02:31:10;;;;;;;15.55;11.40;;;;;;;19.55;100.00;96541.03;5030914;28;20084;-50
2022/08/29 02:33:39;;;;;;;36.20;11.93;;;;;;;19.60;100.00;96541.25;5026685;28;20487;-52
2022/08/29 02:36:09;;;;;;;28.77;12.88;;;;;;;19.59;100.00;96543.09;5027626;28;20081;-52
2022/08/29 02:38:38;;;;;;;28.52;13.05;;;;;;;19.57;100.00;96544.31;5029194;28;20076;-47
2022/08/29 02:41:07;;;;;;;39.58;12.43;;;;;;;19.29;100.00;96549.72;5031452;28;20069;-54
2022/08/29 02:43:41;;;;;;;22.73;11.80;;;;;;;19.26;100.00;96552.78;5031360;28;20085;-50
2022/08/29 02:46:16;;;;;;;16.38;11.10;;;;;;;19.31;100.00;96551.19;5027816;28;20101;-49
2022/08/29 02:48:45;;;;;;;14.38;10.73;;;;;;;19.61;100.00;96548.25;5031169;28;20089;-48
2022/08/29 02:51:29;;;;;;;14.25;10.77;;;;;;;19.87;100.00;96545.69;5021768;28;20601;-47
2022/08/29 02:53:58;;;;;;;19.85;11.43;;;;;;;19.99;100.00;96537.09;5029487;28;20636;-54
2022/08/29 02:56:26;;;;;;;22.05;11.20;;;;;;;19.52;100.00;96546.78;5025865;28;20073;-47
2022/08/29 02:58:54;;;;;;;15.48;10.90;;;;;;;19.50;100.00;96538.94;5031301;28;20077;-48
2022/08/29 03:01:25;;;;;;;14.77;11.57;;;;;;;19.56;100.00;96542.66;5029281;28;20073;-51
2022/08/29 03:03:54;;;;;;;20.17;11.40;;;;;;;19.79;100.00;96537.88;5034155;28;20144;-54
2022/08/29 03:06:22;;;;;;;32.63;11.82;;;;;;;19.47;100.00;96542.00;5026541;28;20068;-49
2022/08/29 03:08:51;;;;;;;21.98;12.15;;;;;;;18.90;100.00;96546.59;5025842;28;20068;-49
2022/08/29 03:11:22;;;;;;;;;;;;;;;19.08;100.00;96540.75;5026640;28;20045;-48
2022/08/29 03:13:50;;;;;;;19.92;11.68;;;;;;;18.93;100.00;96548.91;5030091;28;19971;-47
2022/08/29 03:16:26;;;;;;;42.70;11.98;;;;;;;19.10;100.00;96544.06;5032473;28;20081;-52
2022/08/29 03:18:55;;;;;;;52.78;11.48;;;;;;;19.47;100.00;96546.53;5026586;28;20084;-54
2022/08/29 03:21:26;;;;;;;18.48;11.55;;;;;;;18.72;100.00;96551.63;5029844;28;20461;-52
2022/08/29 03:23:55;;;;;;;22.52;11.48;;;;;;;19.23;100.00;96554.00;5026335;28;20467;-52
2022/08/29 03:26:24;;;;;;;15.67;11.40;;;;;;;19.13;100.00;96556.19;5028046;28;20077;-51
2022/08/29 03:28:53;;;;;;;18.63;11.63;;;;;;;18.93;100.00;96561.44;5027468;28;20511;-47
2022/08/29 03:31:21;;;;;;;22.63;11.57;;;;;;;18.91;100.00;96560.78;5025580;28;20085;-53
2022/08/29 03:33:51;;;;;;;26.55;11.60;;;;;;;18.94;100.00;96563.91;5030092;28;20512;-48
2022/08/29 03:36:20;;;;;;;30.60;12.65;;;;;;;19.14;100.00;96558.69;5028039;28;20072;-53
2022/08/29 03:38:48;;;;;;;18.70;11.43;;;;;;;19.05;100.00;96559.84;5027512;28;20101;-49
2022/08/29 03:41:22;;;;;;;18.23;10.85;;;;;;;19.48;100.00;96556.19;5030340;28;20171;-47
2022/08/29 03:43:50;;;;;;;22.33;11.38;;;;;;;19.24;100.00;96554.84;5022645;28;20077;-50
2022/08/29 03:46:19;;;;;;;25.85;12.07;;;;;;;19.14;100.00;96556.03;5024358;28;20080;-52
2022/08/29 03:48:47;;;;;;;19.80;10.82;;;;;;;19.04;100.00;96552.06;5029957;28;20100;-49
2022/08/29 03:51:17;;;;;;;22.70;11.13;;;;;;;19.37;100.00;96566.47;5028101;28;20077;-51
2022/08/29 03:53:46;;;;;;;36.40;10.18;;;;;;;19.07;100.00;96565.84;5023938;28;20091;-47
2022/08/29 03:56:15;;;;;;;43.35;11.18;;;;;;;19.29;100.00;96569.28;5020363;28;20092;-52
2022/08/29 03:58:46;;;;;;;27.98;10.75;;;;;;;19.01;100.00;96571.16;5029847;28;20084;-47
2022/08/29 04:01:23;;;;;;;14.40;9.45;;;;;;;18.93;100.00;96572.13;5023498;28;20449;-48
2022/08/29 04:03:51;;;;;;;26.80;10.30;;;;;;;18.94;100.00;96574.59;5030866;28;20073;-54
2022/08/29 04:06:22;;;;;;;11.02;9.38;;;;;;;19.02;100.00;96575.47;5028183;28;20145;-51
2022/08/29 04:08:51;;;;;;;21.73;10.32;;;;;;;18.71;100.00;96572.13;5027390;28;20088;-52
2022/08/29 04:11:22;;;;;;;38.78;10.65;;;;;;;18.77;100.00;96570.56;5029501;28;20072;-51
2022/08/29 04:13:51;;;;;;;21.55;10.77;;;;;;;18.81;100.00;96574.47;5030652;28;20081;-52
2022/08/29 04:16:22;;;;;;;22.42;11.18;;;;;;;18.77;100.00;96567.06;5029410;28;20092;-49
2022/08/29 04:18:50;;;;;;;;;;;;;;;18.88;100.00;96575.34;5029785;28;20088;-52
2022/08/29 04:21:18;;;;;;;26.98;10.05;;;;;;;19.20;100.00;96578.47;5029427;28;20355;-49
2022/08/29 04:23:49;;;;;;;34.65;11.57;;;;;;;18.95;100.00;96575.41;5026086;28;20081;-49
2022/08/29 04:26:19;;;;;;;25.85;10.50;;;;;;;19.31;100.00;96572.59;5026977;28;20073;-47
2022/08/29 04:29:05;;;;;;;31.70;10.32;;;;;;;19.34;100.00;96571.34;5023223;28;20085;-55
2022/08/29 04:31:35;;;;;;;28.90;9.95;;;;;;;19.32;100.00;96573.41;5028916;28;20068;-50
2022/08/29 04:34:04;;;;;;;31.63;10.48;;;;;;;19.23;100.00;96583.41;5029922;28;20092;-50
2022/08/29 04:36:33;;;;;;;39.22;10.88;;;;;;;19.06;100.00;96582.06;5030066;28;20081;-50
2022/08/29 04:39:04;;;;;;;45.85;10.63;;;;;;;18.87;100.00;96584.41;5029371;28;20081;-51
2022/08/29 04:41:34;;;;;;;50.00;10.40;;;;;;;18.91;100.00;96579.50;5028647;28;20089;-51
2022/08/29 04:44:03;;;;;;;49.53;10.68;;;;;;;18.88;100.00;96579.88;5023759;28;20087;-52
2022/08/29 04:46:32;;;;;;;37.60;11.05;;;;;;;19.04;100.00;96578.78;5028065;28;20096;-49
2022/08/29 04:49:00;;;;;;;21.42;10.48;;;;;;;19.20;100.00;96575.78;5029394;28;20092;-54
2022/08/29 04:51:33;;;;;;;11.23;8.93;;;;;;;19.20;100.00;96581.97;5027134;28;20078;-53
2022/08/29 04:54:03;;;;;;;10.55;7.53;;;;;;;19.34;100.00;96590.06;5027621;28;20103;-50
2022/08/29 04:56:32;;;;;;;12.10;8.07;;;;;;;19.45;100.00;96587.69;5028494;28;20080;-51
2022/08/29 04:59:01;;;;;;;13.13;8.32;;;;;;;19.35;100.00;96591.72;5025988;28;20705;-49
2022/08/29 05:01:30;;;;;;;12.75;7.35;;;;;;;19.46;100.00;96599.19;5028334;28;20080;-52
2022/08/29 05:03:59;;;;;;;8.43;6.95;;;;;;;19.67;100.00;96604.47;5029444;28;20072;-52
2022/08/29 05:06:27;;;;;;;13.85;7.72;;;;;;;20.07;100.00;96593.97;5029235;28;20641;-51
2022/08/29 05:08:56;;;;;;;13.60;8.10;;;;;;;20.23;100.00;96598.09;5028990;28;20092;-54
2022/08/29 05:11:30;;;;;;;26.38;8.70;;;;;;;20.47;100.00;96596.72;5024489;28;20069;-49
2022/08/29 05:13:59;;;;;;;13.95;7.55;;;;;;;20.61;100.00;96595.78;5029173;28;20085;-51
2022/08/29 05:16:29;;;;;;;16.23;8.48;;;;;;;20.68;100.00;96590.41;5029017;28;20081;-50
2022/08/29 05:18:58;;;;;;;17.93;9.20;;;;;;;20.37;100.00;96586.44;5029008;28;20073;-54
2022/08/29 05:21:30;;;;;;;17.52;9.57;;;;;;;20.50;100.00;96588.31;5024379;28;20065;-47
2022/08/29 05:24:05;;;;;;;15.05;10.43;;;;;;;20.51;100.00;96589.97;5028291;28;20461;-47
2022/08/29 05:26:38;;;;;;;11.38;8.77;;;;;;;19.91;100.00;96595.13;5026331;28;20081;-49
2022/08/29 05:29:09;;;;;;;14.15;8.73;;;;;;;19.85;100.00;96598.59;5028900;28;20528;-47
2022/08/29 05:31:39;;;;;;;15.18;9.63;;;;;;;19.72;100.00;96605.72;5032345;28;20087;-53
2022/08/29 05:34:09;;;;;;;;;;;;;;;20.09;100.00;96596.41;5033849;28;20100;-50
2022/08/29 05:36:57;;;;;;;12.85;9.05;;;;;;;20.65;100.00;96600.69;5032745;28;19956;-49
2022/08/29 05:39:25;;;;;;;15.02;9.68;;;;;;;20.88;100.00;96611.84;5032467;28;20069;-51
2022/08/29 05:41:56;;;;;;;15.90;10.00;;;;;;;20.93;100.00;96614.75;5032261;28;20084;-48
2022/08/29 05:44:25;;;;;;;20.02;8.45;;;;;;;20.04;100.00;96621.13;5032901;28;20076;-54
2022/08/29 05:46:53;;;;;;;17.00;8.38;;;;;;;20.57;100.00;96612.44;5032091;28;20080;-50
2022/08/29 05:49:21;;;;;;;17.75;8.13;;;;;;;20.33;100.00;96624.50;5031658;28;20505;-53
2022/08/29 05:51:52;;;;;;;17.58;9.02;;;;;;;20.63;100.00;96617.00;5031807;28;20072;-54
2022/08/29 05:54:20;;;;;;;18.65;9.13;;;;;;;20.37;100.00;96626.59;5031581;28;20119;-48
2022/08/29 05:56:49;;;;;;;20.17;9.65;;;;;;;20.69;100.00;96632.25;5031851;28;20081;-53
2022/08/29 05:59:20;;;;;;;21.35;9.75;;;;;;;21.60;100.00;96622.75;5032078;28;20096;-50
2022/08/29 06:01:48;;;;;;;15.43;9.10;;;;;;;21.56;100.00;96622.34;5031970;28;20077;-47
2022/08/29 06:04:17;;;;;;;17.05;10.05;;;;;;;21.95;100.00;96625.94;5025645;28;20088;-48
2022/08/29 06:06:46;;;;;;;15.65;9.93;;;;;;;21.54;100.00;96625.25;5025917;28;20088;-55
2022/08/29 06:09:14;;;;;;;15.25;10.85;;;;;;;21.93;100.00;96628.03;5026159;28;20093;-50
2022/08/29 06:11:46;;;;;;;24.58;11.27;;;;;;;22.15;100.00;96620.53;5031175;28;20088;-50
2022/08/29 06:14:14;;;;;;;16.15;10.88;;;;;;;21.88;100.00;96627.84;5031732;28;20073;-55
2022/08/29 06:16:44;;;;;;;19.27;10.57;;;;;;;21.87;100.00;96634.25;5030174;28;20089;-52
2022/08/29 06:19:13;;;;;;;16.65;10.10;;;;;;;22.72;100.00;96616.09;5026596;28;20081;-50
2022/08/29 06:21:41;;;;;;;15.45;10.38;;;;;;;22.84;100.00;96618.88;5031554;28;20072;-53
2022/08/29 06:24:09;;;;;;;14.25;10.10;;;;;;;22.90;100.00;96621.53;5031777;28;20111;-50
2022/08/29 06:26:38;;;;;;;16.83;10.52;;;;;;;22.49;100.00;96622.00;5031704;28;20077;-46
2022/08/29 06:29:08;;;;;;;16.08;10.73;;;;;;;23.48;100.00;96620.44;5031851;28;20527;-51
2022/08/29 06:31:37;;;;;;;44.03;13.52;;;;;;;23.43;100.00;96618.44;5031458;28;20133;-47
2022/08/29 06:34:08;;;;;;;58.67;15.27;;;;;;;22.38;100.00;96626.22;5031563;28;20093;-50
2022/08/29 06:36:37;;;;;;;65.88;14.73;;;;;;;22.42;100.00;96627.41;5027155;28;20049;-48
2022/08/29 06:39:08;;;;;;;64.10;15.90;;;;;;;23.14;100.00;96622.59;5031680;28;20103;-56
2022/08/29 06:41:38;;;;;;;28.02;13.10;;;;;;;23.28;100.00;96634.09;5030307;28;20081;-53
2022/08/29 06:44:06;;;;;;;37.53;14.30;;;;;;;23.21;100.00;96636.81;5030315;28;20081;-49
2022/08/29 06:46:37;;;;;;;24.83;14.07;;;;;;;23.51;100.00;96630.78;5031492;28;20076;-50
2022/08/29 06:49:09;;;;;;;19.33;13.35;;;;;;;22.97;100.00;96635.78;5031025;28;20485;-50
2022/08/29 06:51:39;;;;;;;17.05;11.68;;;;;;;23.77;100.00;96635.06;5030613;28;20081;-54
2022/08/29 06:54:09;;;;;;;24.55;13.32;;;;;;;24.21;100.00;96633.13;5029102;28;20103;-54
2022/08/29 06:56:39;;;;;;;22.77;13.35;;;;;;;24.50;100.00;96631.53;5031702;28;20077;-49
2022/08/29 06:59:10;;;;;;;24.33;13.60;;;;;;;24.14;100.00;96635.06;5031664;28;20077;-49
2022/08/29 07:01:39;;;;;;;23.88;13.95;;;;;;;24.25;100.00;96638.88;5030415;28;20132;-55
2022/08/29 07:04:10;;;;;;;31.95;14.60;;;;;;;23.69;100.00;96638.06;5030857;28;20081;-50
2022/08/29 07:06:42;;;;;;;35.17;14.60;;;;;;;24.40;100.00;96636.66;5030296;28;20087;-51
2022/08/29 07:09:11;;;;;;;27.00;14.68;;;;;;;24.46;100.00;96637.59;5031402;28;20084;-47
2022/08/29 07:11:40;;;;;;;42.45;14.70;;;;;;;24.92;100.00;96641.53;5030515;28;20080;-51
2022/08/29 07:14:08;;;;;;;21.57;13.93;;;;;;;24.43;100.00;96646.13;5024981;28;20085;-50
2022/08/29 07:16:37;;;;;;;20.13;14.13;;;;;;;25.07;100.00;96634.63;5026766;28;20091;-52
2022/08/29 07:19:06;;;;;;;27.30;14.25;;;;;;;25.21;100.00;96635.25;5028629;28;20081;-52
2022/08/29 07:21:36;;;;;;;21.40;14.98;;;;;;;24.48;100.00;96646.28;5030153;28;20111;-51
2022/08/29 07:24:05;;;;;;;21.45;15.13;;;;;;;24.72;100.00;96642.63;5030833;28;20069;-50
2022/08/29 07:26:37;;;;;;;28.73;14.95;;;;;;;25.28;100.00;96641.34;5030948;28;20080;-54
2022/08/29 07:29:09;;;;;;;67.88;14.63;;;;;;;25.49;100.00;96636.44;5030764;28;20084;-50
2022/08/29 07:31:38;;;;;;;19.80;15.45;;;;;;;24.97;100.00;96636.25;5028465;28;20081;-53
2022/08/29 07:34:07;;;;;;;30.15;15.27;;;;;;;25.54;100.00;96650.06;5030659;28;20492;-49
2022/08/29 07:36:38;;;;;;;20.33;14.70;;;;;;;25.83;100.00;96648.31;5030672;28;20065;-48
2022/08/29 07:39:10;;;;;;;;;;;;;;;25.96;100.00;96652.66;5031359;28;20080;-53
2022/08/29 07:41:40;;;;;;;28.65;16.17;;;;;;;26.13;100.00;96653.56;5029868;28;20387;-51
2022/08/29 07:44:08;;;;;;;17.85;14.63;;;;;;;26.31;100.00;96659.88;5030794;28;20661;-48
2022/08/29 07:46:37;;;;;;;21.20;16.15;;;;;;;25.86;100.00;96655.94;5029386;28;20073;-54
2022/08/29 07:49:05;;;;;;;23.67;16.90;;;;;;;24.95;100.00;96657.22;5030361;28;20089;-50
2022/08/29 07:51:35;;;;;;;21.83;15.75;;;;;;;25.90;100.00;96661.72;5029727;28;20456;-53
2022/08/29 07:54:05;;;;;;;29.65;16.92;;;;;;;25.80;100.00;96665.00;5030186;28;20064;-51
2022/08/29 07:56:40;;;;;;;22.48;17.02;;;;;;;25.70;100.00;96659.34;5029991;28;20065;-51
2022/08/29 07:59:08;;;;;;;20.30;16.45;;;;;;;25.83;100.00;96661.81;5030474;28;20169;-52
2022/08/29 08:01:37;;;;;;;20.92;16.23;;;;;;;26.05;100.00;96670.16;5023195;28;20069;-49
2022/08/29 08:04:06;;;;;;;18.20;15.88;;;;;;;26.17;100.00;96665.53;5023897;28;20061;-53
2022/08/29 08:06:36;;;;;;;19.35;15.15;;;;;;;25.93;100.00;96670.16;5023824;28;20092;-54
2022/08/29 08:09:08;;;;;;;21.40;16.20;;;;;;;26.20;100.00;96675.06;5022828;28;20077;-52
2022/08/29 08:11:39;;;;;;;20.05;17.08;;;;;;;26.51;100.00;96676.53;5022876;28;20034;-52
2022/08/29 08:14:07;;;;;;;17.20;14.98;;;;;;;26.78;100.00;96668.66;5024802;28;20082;-54
2022/08/29 08:16:37;;;;;;;19.20;16.05;;;;;;;26.40;100.00;96682.78;5029801;28;20412;-55
2022/08/29 08:19:12;;;;;;;16.38;14.63;;;;;;;25.43;100.00;96681.44;5030150;28;20076;-56
2022/08/29 08:21:42;;;;;;;21.90;15.65;;;;;;;25.14;100.00;96680.41;5029526;28;20057;-55
2022/08/29 08:24:19;;;;;;;16.48;14.25;;;;;;;25.89;100.00;96687.09;5030014;28;20084;-55
2022/08/29 08:26:47;;;;;;;;;;;;;;;25.67;100.00;96684.97;5030303;28;20183;-52
2022/08/29 08:29:15;;;;;;;18.20;15.20;;;;;;;26.58;100.00;96685.31;5029299;28;20362;-49
2022/08/29 08:31:45;;;;;;;20.27;16.55;;;;;;;26.35;100.00;96688.88;5028941;28;20085;-50
2022/08/29 08:34:14;;;;;;;17.80;14.68;;;;;;;26.14;100.00;96694.94;5029768;28;20147;-51
2022/08/29 08:36:43;;;;;;;23.20;16.65;;;;;;;26.15;100.00;96688.44;5029419;28;20073;-47
2022/08/29 08:39:13;;;;;;;17.35;15.50;;;;;;;26.24;100.00;96692.44;5029602;28;20457;-50
2022/08/29 08:41:50;;;;;;;21.85;16.58;;;;;;;26.61;100.00;96690.25;5027733;28;20065;-52
2022/08/29 08:45:01;;;;;;;19.60;16.08;;;;;;;26.66;100.00;96678.69;5023232;28;20093;-49
2022/08/29 08:47:31;;;;;;;;;;;;;;;26.38;100.00;96683.00;5029624;28;20087;-50
2022/08/29 08:50:03;;;;;;;21.65;15.88;;;;;;;26.48;100.00;96675.13;5029249;28;19968;-49
2022/08/29 08:52:41;;;;;;;20.40;15.55;;;;;;;26.45;100.00;96677.44;5022784;28;20069;-50
2022/08/29 08:55:14;;;;;;;21.02;15.52;;;;;;;26.11;100.00;96684.59;5025319;28;20064;-48
2022/08/29 08:57:50;;;;;;;19.15;16.17;;;;;;;26.04;100.00;96687.41;5024655;28;20107;-53
2022/08/29 09:00:18;;;;;;;22.52;17.20;;;;;;;26.02;100.00;96686.84;5029657;28;20092;-52
2022/08/29 09:02:55;;;;;;;19.88;16.02;;;;;;;26.14;100.00;96681.41;5028459;28;20088;-53
2022/08/29 09:05:35;;;;;;;22.20;18.08;;;;;;;26.30;100.00;96680.69;5025960;28;20073;-48
2022/08/29 09:08:10;;;;;;;25.00;19.67;;;;;;;26.03;100.00;96683.06;5021386;28;20077;-52
2022/08/29 09:10:46;;;;;;;23.23;18.48;;;;;;;26.20;100.00;96684.00;5023547;28;20068;-50
2022/08/29 09:13:27;;;;;;;24.23;18.90;;;;;;;26.52;100.00;96684.38;5028413;28;20500;-49
2022/08/29 09:15:58;;;;;;;23.73;18.65;;;;;;;26.74;100.00;96676.44;5029263;28;20081;-49
2022/08/29 09:18:30;;;;;;;26.10;19.00;;;;;;;26.69;100.00;96672.81;5029324;28;20085;-47
2022/08/29 09:20:59;;;;;;;29.10;21.23;;;;;;;26.63;100.00;96685.41;5029128;28;20069;-49
2022/08/29 09:23:39;;;;;;;23.95;19.27;;;;;;;26.97;100.00;96674.69;5028216;28;20081;-51
2022/08/29 09:26:11;;;;;;;18.25;14.43;;;;;;;26.20;100.00;96683.16;5024002;28;20085;-52
2022/08/29 09:28:41;;;;;;;17.75;13.70;;;;;;;27.31;100.00;96677.47;5027923;28;20084;-51
2022/08/29 09:31:24;;;;;;;22.85;17.05;;;;;;;27.18;100.00;96676.69;5028415;28;20104;-51
2022/08/29 09:33:58;;;;;;;19.88;16.40;;;;;;;26.40;100.00;96670.06;5028629;28;20084;-52
2022/08/29 09:36:42;;;;;;;24.48;18.02;;;;;;;26.97;100.00;96674.69;5028888;28;20503;-55
2022/08/29 09:39:20;;;;;;;36.70;27.27;;;;;;;27.82;100.00;96670.97;5029027;28;20089;-53
2022/08/29 09:41:51;;;;;;;31.75;24.02;;;;;;;28.19;100.00;96664.97;5022810;28;20072;-51
2022/08/29 09:44:25;;;;;;;28.58;22.77;;;;;;;27.39;100.00;96675.19;5028334;28;20073;-48
2022/08/29 09:47:10;;;;;;;31.23;22.13;;;;;;;27.54;100.00;96665.63;5028643;28;20069;-53
2022/08/29 09:49:40;;;;;;;26.90;21.20;;;;;;;27.79;100.00;96667.94;5025964;28;20380;-50
2022/08/29 09:52:13;;;;;;;30.67;23.60;;;;;;;27.55;100.00;96664.56;5028290;28;20069;-49
2022/08/29 09:54:42;;;;;;;30.70;22.52;;;;;;;27.65;100.00;96662.00;5028179;28;20073;-55
2022/08/29 09:57:19;;;;;;;31.35;23.85;;;;;;;27.65;100.00;96662.00;5028800;28;20080;-48
2022/08/29 10:00:04;;;;;;;26.83;20.27;;;;;;;28.14;100.00;96668.41;5028725;28;20527;-55
2022/08/29 10:02:38;;;;;;;27.42;19.92;;;;;;;27.90;100.00;96670.53;5017110;28;20458;-50
2022/08/29 10:05:11;;;;;;;20.40;16.40;;;;;;;27.64;100.00;96668.50;5019890;28;20195;-53
2022/08/29 10:07:47;;;;;;;20.30;16.60;;;;;;;27.34;100.00;96666.13;5023652;28;20068;-53
2022/08/29 10:10:18;;;;;;;18.05;14.85;;;;;;;28.05;100.00;96664.50;5028622;28;20076;-47
2022/08/29 10:12:50;;;;;;;19.75;16.15;;;;;;;27.79;100.00;96663.34;5028240;28;20073;-48
2022/08/29 10:15:24;;;;;;;19.08;15.73;;;;;;;28.49;100.00;96664.53;5028916;28;20077;-50
2022/08/29 10:18:22;;;;;;;17.70;15.25;;;;;;;28.45;100.00;96665.28;5027364;28;20080;-50
2022/08/29 10:20:59;;;;;;;17.95;15.45;;;;;;;27.59;100.00;96660.28;5028620;28;20657;-50
2022/08/29 10:23:34;;;;;;;17.75;13.95;;;;;;;28.66;100.00;96656.31;5031747;28;20073;-52
2022/08/29 10:26:07;;;;;;;17.77;14.63;;;;;;;27.69;100.00;96661.25;5031714;28;20515;-49
2022/08/29 10:28:40;;;;;;;19.13;13.63;;;;;;;27.89;100.00;96659.94;5029985;28;20080;-51
2022/08/29 10:31:13;;;;;;;16.23;14.45;;;;;;;28.03;100.00;96653.09;5031215;28;20080;-49
2022/08/29 10:34:01;;;;;;;18.15;14.90;;;;;;;28.30;100.00;96655.06;5031466;28;20065;-54
2022/08/29 10:36:32;;;;;;;18.33;14.18;;;;;;;28.09;100.00;96657.50;5029960;28;20172;-50
2022/08/29 10:39:04;;;;;;;18.63;14.15;;;;;;;28.58;100.00;96651.34;5031981;28;20061;-55
2022/08/29 10:41:37;;;;;;;22.30;16.33;;;;;;;28.50;100.00;96651.81;5031247;28;20095;-47
2022/08/29 10:44:16;;;;;;;19.40;15.18;;;;;;;28.72;100.00;96658.00;5031624;28;20073;-48
2022/08/29 10:47:02;;;;;;;19.92;15.07;;;;;;;28.28;100.00;96658.00;5027328;28;20115;-48
2022/08/29 10:49:41;;;;;;;17.70;14.38;;;;;;;28.77;100.00;96657.25;5029071;28;20583;-48
2022/08/29 10:52:17;;;;;;;17.40;14.15;;;;;;;28.49;100.00;96661.81;5031554;28;20167;-48
2022/08/29 10:54:53;;;;;;;17.25;14.00;;;;;;;29.36;100.00;96661.91;5030437;28;20079;-49
2022/08/29 10:57:37;;;;;;;14.85;13.23;;;;;;;29.53;100.00;96652.53;5024969;28;20078;-52
2022/08/29 11:00:09;;;;;;;18.05;13.55;;;;;;;28.79;100.00;96663.25;5023929;28;20086;-50
2022/08/29 11:02:41;;;;;;;16.40;12.80;;;;;;;28.59;100.00;96661.94;5029679;28;20083;-53
2022/08/29 11:05:14;;;;;;;16.73;13.27;;;;;;;29.36;100.00;96653.75;5031485;28;20452;-49
2022/08/29 11:07:46;;;;;;;15.15;13.35;;;;;;;30.00;100.00;96649.03;5030654;28;20451;-51
2022/08/29 11:10:17;;;;;;;17.13;12.88;;;;;;;29.57;100.00;96645.47;5026462;28;20141;-51
2022/08/29 11:12:50;;;;;;;16.35;12.50;;;;;;;30.48;100.00;96647.09;5030429;28;20081;-53
2022/08/29 11:15:20;;;;;;;15.77;11.50;;;;;;;29.97;100.00;96644.13;5030562;28;20080;-51
2022/08/29 11:17:54;;;;;;;13.35;10.85;;;;;;;29.60;100.00;96644.19;5024409;28;20412;-55
2022/08/29 11:20:26;;;;;;;12.75;10.20;;;;;;;29.97;100.00;96646.00;5027226;28;20068;-51
2022/08/29 11:22:58;;;;;;;12.88;10.45;;;;;;;29.68;100.00;96648.31;5030870;28;20076;-54
2022/08/29 11:25:26;;;;;;;13.45;10.02;;;;;;;29.78;100.00;96651.09;5030999;28;20057;-55
2022/08/29 11:28:02;;;;;;;13.23;10.77;;;;;;;28.74;100.00;96652.34;5030184;28;20503;-49
2022/08/29 11:30:36;;;;;;;12.63;11.00;;;;;;;29.96;100.00;96644.38;5028027;28;20065;-51
2022/08/29 11:33:20;;;;;;;10.70;8.80;;;;;;;29.70;100.00;96646.97;5028638;28;20500;-53